Time;durP1;ratioP1;P1;durP2;ratioP2;P2;SDS_P1;SDS_P2;PMS_P1;PMS_P2;Temp;Humidity;BMP_temperature;BMP_pressure;BME280_temperature;BME280_humidity;BME280_pressure;Samples;Min_cycle;Max_cycle;Signal;HPM_P1;HPM_P2
2023/05/22 00:00:51;;;;;;;28.75;25.85;;;16.70;99.90;;;;;;5079854;28;20042;-66
2023/05/22 00:03:18;;;;;;;28.52;25.63;;;16.80;99.90;;;;;;5062930;28;20055;-65
2023/05/22 00:05:44;;;;;;;29.25;26.20;;;16.80;99.90;;;;;;5080740;28;20404;-66
2023/05/22 00:08:10;;;;;;;27.08;24.38;;;16.80;99.90;;;;;;5080181;28;20039;-65
2023/05/22 00:10:39;;;;;;;27.73;25.13;;;16.80;99.90;;;;;;5060985;28;20712;-65
2023/05/22 00:13:05;;;;;;;28.33;25.48;;;16.70;99.90;;;;;;5079943;28;20051;-65
2023/05/22 00:15:32;;;;;;;27.30;24.52;;;16.80;99.90;;;;;;5079152;28;20677;-64
2023/05/22 00:17:58;;;;;;;26.08;23.55;;;16.90;99.90;;;;;;5079899;28;20047;-66
2023/05/22 00:20:25;;;;;;;25.08;22.42;;;16.80;99.90;;;;;;5079836;28;20051;-66
2023/05/22 00:22:50;;;;;;;24.50;22.23;;;16.90;99.90;;;;;;5092282;28;20695;-66
2023/05/22 00:25:18;;;;;;;25.38;22.67;;;16.80;99.90;;;;;;5080019;28;20047;-65
2023/05/22 00:27:44;;;;;;;25.15;22.65;;;17.00;99.90;;;;;;5079933;28;20408;-65
2023/05/22 00:30:10;;;;;;;25.00;22.38;;;17.00;99.90;;;;;;5080344;28;20497;-66
2023/05/22 00:32:36;;;;;;;24.45;22.10;;;16.90;99.90;;;;;;5078971;28;21256;-66
2023/05/22 00:35:02;;;;;;;24.83;22.33;;;16.90;99.90;;;;;;5079362;28;20040;-66
2023/05/22 00:37:28;;;;;;;24.58;21.98;;;17.00;99.90;;;;;;5062080;28;20437;-66
2023/05/22 00:39:53;;;;;;;24.88;22.35;;;17.00;99.90;;;;;;5113564;27;20044;-65
2023/05/22 00:42:19;;;;;;;26.08;21.77;;;17.00;99.90;;;;;;5046067;28;20043;-67
2023/05/22 00:44:47;;;;;;;24.92;22.38;;;17.00;99.90;;;;;;5078978;28;20786;-66
2023/05/22 00:47:12;;;;;;;26.77;24.13;;;17.00;99.90;;;;;;5063179;28;20413;-65
2023/05/22 00:49:39;;;;;;;24.88;22.38;;;16.90;99.90;;;;;;5079803;28;20047;-65
2023/05/22 00:52:05;;;;;;;25.35;22.88;;;16.90;99.90;;;;;;5080457;28;20111;-66
2023/05/22 00:54:31;;;;;;;25.33;22.52;;;16.90;99.90;;;;;;5045087;28;20048;-66
2023/05/22 00:56:59;;;;;;;24.85;22.30;;;17.00;99.90;;;;;;5081079;28;20145;-68
2023/05/22 00:59:25;;;;;;;25.77;23.17;;;16.90;99.90;;;;;;5079466;28;20044;-66
2023/05/22 01:01:50;;;;;;;25.30;22.65;;;17.00;99.90;;;;;;5079514;28;20430;-66
2023/05/22 01:04:17;;;;;;;25.17;22.48;;;17.00;94.90;;;;;;5046593;28;20040;-65
2023/05/22 01:06:46;;;;;;;24.13;21.92;;;16.90;91.40;;;;;;5058937;28;20032;-66
2023/05/22 01:09:13;;;;;;;24.95;22.55;;;16.90;87.50;;;;;;5062956;28;20054;-66
2023/05/22 01:12:00;;;;;;;25.45;22.83;;;16.90;73.80;;;;;;5080159;28;20040;-67
2023/05/22 01:14:41;;;;;;;25.52;23.10;;;16.90;66.40;;;;;;5078581;28;20116;-66
2023/05/22 01:17:23;;;;;;;25.45;22.90;;;17.00;50.60;;;;;;5079728;28;20067;-66
2023/05/22 01:20:04;;;;;;;24.30;21.88;;;16.90;46.20;;;;;;5079362;28;20071;-65
2023/05/22 01:23:05;;;;;;;24.08;21.80;;;16.90;42.40;;;;;;5079926;28;20099;-65
2023/05/22 01:25:34;;;;;;;24.55;22.02;;;16.80;49.20;;;;;;5078513;28;20047;-66
2023/05/22 01:28:18;;;;;;;24.77;22.38;;;16.80;51.60;;;;;;5079426;28;20036;-65
2023/05/22 01:30:54;;;;;;;23.92;21.42;;;16.80;50.80;;;;;;5079539;28;20490;-66
2023/05/22 01:33:24;;;;;;;26.58;21.75;;;16.90;55.50;;;;;;5079825;28;20087;-66
2023/05/22 01:35:54;;;;;;;24.05;21.75;;;16.80;49.20;;;;;;5113032;27;20460;-67
2023/05/22 01:38:20;;;;;;;24.35;21.77;;;16.80;54.10;;;;;;5076175;28;20533;-66
2023/05/22 01:40:47;;;;;;;24.20;21.92;;;16.80;44.40;;;;;;5077941;28;20059;-66
2023/05/22 01:43:14;;;;;;;23.98;21.55;;;16.80;44.00;;;;;;5078637;28;20047;-65
2023/05/22 01:45:39;;;;;;;23.60;21.25;;;16.80;53.70;;;;;;5059567;28;20505;-65
2023/05/22 01:48:06;;;;;;;25.23;22.73;;;16.80;36.30;;;;;;5061847;28;20036;-65
2023/05/22 01:50:32;;;;;;;23.77;21.58;;;16.80;27.00;;;;;;5062775;28;20072;-65
2023/05/22 01:53:00;;;;;;;22.77;20.55;;;16.80;18.90;;;;;;5061449;28;20043;-65
2023/05/22 01:55:46;;;;;;;23.20;20.83;;;16.80;19.10;;;;;;5078748;28;20051;-67
2023/05/22 01:58:40;;;;;;;23.00;20.92;;;16.80;11.30;;;;;;5079156;28;20072;-66
2023/05/22 02:01:08;;;;;;;25.17;22.42;;;16.80;11.10;;;;;;5111288;28;20040;-65
2023/05/22 02:03:36;;;;;;;24.65;22.25;;;16.90;9.30;;;;;;5079279;28;20512;-66
2023/05/22 02:06:06;;;;;;;26.63;24.13;;;16.80;12.90;;;;;;5111423;28;20071;-65
2023/05/22 02:08:34;;;;;;;24.73;22.42;;;16.80;24.80;;;;;;5112710;28;20098;-65
2023/05/22 02:11:01;;;;;;;24.48;22.17;;;16.80;50.80;;;;;;5112231;28;20126;-65
2023/05/22 02:13:27;;;;;;;24.58;22.27;;;16.70;63.20;;;;;;5078958;28;20293;-66
2023/05/22 02:15:54;;;;;;;25.92;23.33;;;16.70;80.40;;;;;;5076505;28;20040;-65
2023/05/22 02:18:30;;;;;;;27.05;24.30;;;16.60;91.00;;;;;;5081425;28;20050;-66
2023/05/22 02:20:56;;;;;;;26.98;24.25;;;16.60;97.80;;;;;;5080526;28;20516;-65
2023/05/22 02:23:22;;;;;;;27.75;25.02;;;16.60;99.90;;;;;;5116484;27;20036;-66
2023/05/22 02:25:48;;;;;;;27.60;24.58;;;16.60;99.90;;;;;;5082198;28;20405;-65
2023/05/22 02:28:14;;;;;;;27.95;25.35;;;16.60;99.90;;;;;;5097035;28;20109;-66
2023/05/22 02:30:39;;;;;;;28.70;26.02;;;16.50;99.90;;;;;;5081229;28;20047;-66
2023/05/22 02:33:05;;;;;;;29.90;26.98;;;16.50;99.90;;;;;;5081220;28;20087;-65
2023/05/22 02:35:31;;;;;;;29.85;26.98;;;16.50;99.90;;;;;;5080956;28;20075;-66
2023/05/22 02:37:57;;;;;;;29.13;26.15;;;16.50;99.90;;;;;;5081269;28;20040;-64
2023/05/22 02:40:23;;;;;;;29.13;26.33;;;16.60;99.90;;;;;;5081737;28;20405;-65
2023/05/22 02:42:48;;;;;;;30.33;27.23;;;16.50;99.90;;;;;;5098920;28;20036;-65
2023/05/22 02:45:15;;;;;;;31.35;28.15;;;16.40;99.90;;;;;;5081502;28;20048;-65
2023/05/22 02:47:41;;;;;;;32.10;28.70;;;16.50;99.90;;;;;;5082733;28;20036;-65
2023/05/22 02:50:07;;;;;;;30.75;27.88;;;16.50;99.90;;;;;;5095731;28;20039;-66
2023/05/22 02:52:33;;;;;;;32.42;29.23;;;16.30;99.90;;;;;;5080651;28;20044;-66
2023/05/22 02:55:00;;;;;;;32.47;29.55;;;16.30;99.90;;;;;;5081179;28;20044;-64
2023/05/22 02:57:25;;;;;;;32.55;29.35;;;16.30;99.90;;;;;;5081438;28;20406;-65
2023/05/22 02:59:52;;;;;;;32.08;28.70;;;16.30;99.90;;;;;;5080936;28;20043;-65
2023/05/22 03:02:18;;;;;;;34.05;30.48;;;16.30;99.90;;;;;;5079915;28;20109;-65
2023/05/22 03:04:44;;;;;;;36.60;32.78;;;16.30;99.90;;;;;;5047270;28;20032;-65
2023/05/22 03:07:11;;;;;;;38.28;34.50;;;16.30;99.90;;;;;;5056076;28;20068;-66
2023/05/22 03:09:36;;;;;;;35.78;32.33;;;16.20;99.90;;;;;;5081443;28;20048;-66
2023/05/22 03:12:03;;;;;;;36.55;33.15;;;16.30;99.90;;;;;;5098083;28;20063;-65
2023/05/22 03:14:29;;;;;;;38.83;34.70;;;16.30;99.90;;;;;;5060999;28;20075;-66
2023/05/22 03:16:55;;;;;;;38.95;34.75;;;16.30;99.90;;;;;;5081781;28;20082;-65
2023/05/22 03:19:21;;;;;;;37.08;33.17;;;16.20;99.90;;;;;;5081198;28;20050;-65
2023/05/22 03:21:48;;;;;;;38.88;34.72;;;16.20;99.90;;;;;;5063012;28;20203;-65
2023/05/22 03:24:14;;;;;;;38.63;34.33;;;16.10;99.90;;;;;;5084023;28;20046;-65
2023/05/22 03:26:40;;;;;;;37.58;33.70;;;16.00;99.90;;;;;;5081332;28;20066;-66
2023/05/22 03:29:06;;;;;;;38.80;34.20;;;16.00;99.90;;;;;;5096336;28;20123;-66
2023/05/22 03:31:33;;;;;;;36.45;32.47;;;16.00;99.90;;;;;;5063871;28;20036;-65
2023/05/22 03:33:59;;;;;;;38.05;33.22;;;15.90;99.90;;;;;;5064102;28;20036;-65
2023/05/22 03:36:25;;;;;;;40.53;35.38;;;15.80;99.90;;;;;;5080003;28;20050;-66
2023/05/22 03:38:52;;;;;;;38.47;34.20;;;15.80;99.90;;;;;;5063973;28;20036;-66
2023/05/22 03:41:20;;;;;;;40.60;34.92;;;15.70;99.90;;;;;;5059758;28;20059;-66
2023/05/22 03:43:45;;;;;;;39.47;34.97;;;15.70;99.90;;;;;;5047098;28;20060;-66
2023/05/22 03:46:11;;;;;;;41.78;36.05;;;15.70;99.90;;;;;;5080609;28;20161;-66
2023/05/22 03:48:37;;;;;;;43.22;35.65;;;15.70;99.90;;;;;;5093196;28;20040;-66
2023/05/22 03:51:03;;;;;;;41.38;34.88;;;15.70;99.90;;;;;;5098049;28;20541;-66
2023/05/22 03:53:29;;;;;;;39.20;34.30;;;15.60;99.90;;;;;;5082816;28;20035;-67
2023/05/22 03:55:56;;;;;;;40.95;35.70;;;15.50;99.90;;;;;;5081621;28;20047;-66
2023/05/22 03:58:24;;;;;;;40.95;36.33;;;15.60;99.90;;;;;;5081258;28;20079;-66
2023/05/22 04:00:54;;;;;;;40.88;36.00;;;15.60;99.90;;;;;;5079511;28;20040;-66
2023/05/22 04:03:20;;;;;;;38.97;34.60;;;15.60;99.90;;;;;;5063184;28;20185;-67
2023/05/22 04:05:46;;;;;;;39.17;34.80;;;15.50;99.90;;;;;;5080773;28;20039;-66
2023/05/22 04:08:11;;;;;;;42.92;35.45;;;15.50;99.90;;;;;;5082607;28;20758;-67
2023/05/22 04:10:37;;;;;;;38.70;34.53;;;15.50;99.90;;;;;;5056018;28;20130;-66
2023/05/22 04:13:04;;;;;;;38.20;34.08;;;15.50;99.90;;;;;;5061964;28;20051;-65
2023/05/22 04:15:32;;;;;;;38.63;34.08;;;15.40;99.90;;;;;;5079539;28;20044;-66
2023/05/22 04:18:01;;;;;;;38.90;33.95;;;15.40;99.90;;;;;;5080133;28;20497;-66
2023/05/22 04:20:27;;;;;;;38.15;34.00;;;15.50;99.90;;;;;;5050731;28;20067;-67
2023/05/22 04:22:56;;;;;;;36.85;33.05;;;15.50;99.90;;;;;;5062528;28;20123;-66
2023/05/22 04:25:22;;;;;;;38.03;33.97;;;15.50;99.90;;;;;;5062077;28;20036;-66
2023/05/22 04:27:47;;;;;;;35.00;31.38;;;15.50;99.90;;;;;;5080046;28;20070;-67
2023/05/22 04:30:15;;;;;;;33.17;29.63;;;15.50;99.90;;;;;;5080044;28;20531;-65
2023/05/22 04:32:42;;;;;;;35.63;29.48;;;15.60;99.90;;;;;;5075663;28;20649;-67
2023/05/22 04:35:08;;;;;;;32.70;29.20;;;15.70;99.90;;;;;;5077953;28;20429;-67
2023/05/22 04:37:35;;;;;;;34.65;27.95;;;15.60;99.90;;;;;;5033292;28;20155;-67
2023/05/22 04:40:05;;;;;;;29.92;26.98;;;15.70;99.90;;;;;;5062857;28;20059;-67
2023/05/22 04:42:33;;;;;;;29.65;26.42;;;15.80;99.90;;;;;;5065007;28;20471;-66
2023/05/22 04:44:59;;;;;;;29.58;25.25;;;15.80;99.90;;;;;;5065855;28;20079;-67
2023/05/22 04:47:30;;;;;;;29.27;25.95;;;15.80;99.90;;;;;;5098878;27;20036;-67
2023/05/22 04:49:57;;;;;;;26.55;23.77;;;15.80;99.90;;;;;;5066113;28;20639;-67
2023/05/22 04:52:23;;;;;;;25.98;23.27;;;15.90;99.90;;;;;;5047959;28;20136;-67
2023/05/22 04:54:51;;;;;;;24.73;22.13;;;16.00;99.90;;;;;;5064788;28;20553;-67
2023/05/22 04:57:17;;;;;;;24.70;21.90;;;16.00;99.90;;;;;;5063465;27;20684;-66
2023/05/22 04:59:44;;;;;;;25.00;21.83;;;16.00;99.90;;;;;;5048377;28;20051;-66
2023/05/22 05:02:10;;;;;;;23.92;21.40;;;16.00;99.90;;;;;;5081826;27;20567;-65
2023/05/22 05:04:36;;;;;;;23.67;21.35;;;16.00;99.90;;;;;;5080629;28;20036;-66
2023/05/22 05:07:02;;;;;;;25.42;21.52;;;16.00;99.90;;;;;;5063591;28;20040;-66
2023/05/22 05:09:28;;;;;;;23.63;20.75;;;16.10;97.80;;;;;;5048277;28;20210;-65
2023/05/22 05:11:54;;;;;;;22.83;20.50;;;16.10;93.30;;;;;;5098798;27;20591;-65
2023/05/22 05:14:20;;;;;;;24.20;20.17;;;16.20;77.90;;;;;;5047161;28;20112;-65
2023/05/22 05:16:46;;;;;;;26.52;20.45;;;16.20;59.40;;;;;;5076011;28;20044;-65
2023/05/22 05:19:12;;;;;;;21.75;19.27;;;16.30;39.90;;;;;;5065665;28;20051;-66
2023/05/22 05:21:38;;;;;;;23.17;19.25;;;16.30;1.00;;;;;;5081085;28;20430;-65
2023/05/22 05:24:05;;;;;;;19.90;17.73;;;16.20;4.90;;;;;;5064815;28;20483;-66
2023/05/22 05:26:31;;;;;;;25.30;17.98;;;16.20;1.00;;;;;;5080956;28;20035;-65
2023/05/22 05:28:56;;;;;;;22.38;19.80;;;16.20;1.00;;;;;;5048624;28;20653;-65
2023/05/22 05:31:22;;;;;;;26.63;19.05;;;16.20;1.00;;;;;;5063865;28;20051;-67
2023/05/22 05:33:49;;;;;;;22.40;18.35;;;16.20;1.00;;;;;;5098190;27;20433;-67
2023/05/22 05:36:15;;;;;;;23.80;18.10;;;16.20;1.00;;;;;;5077029;28;20035;-66
2023/05/22 05:38:41;;;;;;;22.88;18.30;;;16.20;1.00;;;;;;5030864;28;20048;-66
2023/05/22 05:41:06;;;;;;;21.30;17.35;;;16.20;1.00;;;;;;5061390;28;20086;-67
2023/05/22 05:43:32;;;;;;;20.48;18.02;;;16.30;1.00;;;;;;5023601;28;20044;-67
2023/05/22 05:45:58;;;;;;;18.25;15.38;;;16.40;1.00;;;;;;5064772;28;20044;-67
2023/05/22 05:48:24;;;;;;;17.50;15.70;;;16.40;1.00;;;;;;5066444;28;20248;-65
2023/05/22 05:50:50;;;;;;;16.75;14.95;;;16.60;99.90;;;;;;5062781;28;20101;-66
2023/05/22 05:53:15;;;;;;;18.08;15.40;;;16.70;99.90;;;;;;5046238;28;20054;-64
2023/05/22 05:55:41;;;;;;;17.55;14.88;;;16.70;99.90;;;;;;5099107;28;20036;-66
2023/05/22 05:58:07;;;;;;;21.38;13.60;;;16.80;99.90;;;;;;5064578;28;20381;-66
2023/05/22 06:00:33;;;;;;;15.00;12.27;;;16.90;99.90;;;;;;5039211;28;20044;-66
2023/05/22 06:02:59;;;;;;;16.20;13.13;;;17.00;99.90;;;;;;5045267;28;20542;-66
2023/05/22 06:05:25;;;;;;;17.20;13.80;;;17.10;99.90;;;;;;5046395;28;20163;-66
2023/05/22 06:07:51;;;;;;;15.02;13.10;;;17.10;99.90;;;;;;5088081;28;20055;-65
2023/05/22 06:10:17;;;;;;;14.38;12.32;;;17.20;99.90;;;;;;5081949;28;20044;-66
2023/05/22 06:12:43;;;;;;;14.55;12.25;;;17.30;99.90;;;;;;5063979;28;20040;-66
2023/05/22 06:15:11;;;;;;;18.15;13.45;;;17.30;99.90;;;;;;5080810;28;20146;-65
2023/05/22 06:17:37;;;;;;;19.70;12.43;;;17.30;99.90;;;;;;5032302;28;20860;-66
2023/05/22 06:20:07;;;;;;;15.02;12.80;;;17.20;99.90;;;;;;5045268;28;20059;-66
2023/05/22 06:22:32;;;;;;;18.33;13.05;;;17.20;99.90;;;;;;5048528;28;20311;-66
2023/05/22 06:24:58;;;;;;;16.95;12.98;;;17.20;99.90;;;;;;5046668;28;20040;-66
2023/05/22 06:27:26;;;;;;;16.77;12.57;;;17.20;99.90;;;;;;5064712;28;20397;-66
2023/05/22 06:29:52;;;;;;;15.48;12.35;;;17.10;99.90;;;;;;5080514;28;20105;-66
2023/05/22 06:32:18;;;;;;;18.50;12.88;;;17.10;99.90;;;;;;5048793;28;20528;-66
2023/05/22 06:34:45;;;;;;;17.30;13.32;;;17.10;99.90;;;;;;5045793;28;20036;-68
2023/05/22 06:37:11;;;;;;;19.27;13.55;;;17.20;99.90;;;;;;5086252;28;20032;-65
2023/05/22 06:39:38;;;;;;;20.20;12.10;;;17.10;99.90;;;;;;5078661;28;20137;-66
2023/05/22 06:42:03;;;;;;;18.23;11.23;;;17.10;99.90;;;;;;5046697;28;20036;-65
2023/05/22 06:44:29;;;;;;;21.23;10.75;;;17.00;99.90;;;;;;5078262;28;20105;-65
2023/05/22 06:46:55;;;;;;;22.80;10.48;;;17.00;99.90;;;;;;5062200;28;20043;-65
2023/05/22 06:49:21;;;;;;;18.70;10.10;;;16.90;99.90;;;;;;5090898;28;20036;-65
2023/05/22 06:51:47;;;;;;;25.48;9.90;;;16.80;99.90;;;;;;5077094;28;20036;-65
2023/05/22 06:54:13;;;;;;;20.23;9.23;;;16.80;99.90;;;;;;5079905;28;20394;-65
2023/05/22 06:56:46;;;;;;;19.65;8.75;;;16.70;99.90;;;;;;5079685;28;20036;-66
2023/05/22 06:59:11;;;;;;;22.75;8.75;;;16.80;99.90;;;;;;5062115;28;20142;-65
2023/05/22 07:01:37;;;;;;;20.10;8.93;;;16.80;99.90;;;;;;5079141;28;20073;-66
2023/05/22 07:04:07;;;;;;;25.23;9.05;;;16.70;99.90;;;;;;5047461;28;20459;-66
2023/05/22 07:06:37;;;;;;;27.30;9.65;;;16.70;99.90;;;;;;5066623;28;20059;-65
2023/05/22 07:09:04;;;;;;;25.85;8.82;;;16.60;99.90;;;;;;5082174;28;20085;-65
2023/05/22 07:11:30;;;;;;;21.20;9.60;;;16.60;99.90;;;;;;5066040;28;20422;-66
2023/05/22 07:13:56;;;;;;;24.90;10.00;;;16.50;99.90;;;;;;5082944;28;20353;-67
2023/05/22 07:16:22;;;;;;;27.35;10.35;;;16.50;99.90;;;;;;5082901;28;20076;-67
2023/05/22 07:19:09;;;;;;;29.92;10.68;;;16.40;99.90;;;;;;5066608;28;20302;-67
2023/05/22 07:21:34;;;;;;;34.60;10.45;;;16.30;99.90;;;;;;5061937;28;20411;-66
2023/05/22 07:24:07;;;;;;;31.63;11.27;;;16.30;99.90;;;;;;5083015;28;20163;-65
2023/05/22 07:26:36;;;;;;;30.67;11.07;;;16.10;1.00;;;;;;5081700;28;20043;-66
2023/05/22 07:29:03;;;;;;;30.85;12.10;;;16.10;1.00;;;;;;5096192;28;20047;-66
2023/05/22 07:31:30;;;;;;;35.22;12.13;;;16.10;1.00;;;;;;5063230;28;20128;-65
2023/05/22 07:33:56;;;;;;;30.20;11.77;;;16.10;1.00;;;;;;5065407;28;20054;-67
2023/05/22 07:36:22;;;;;;;32.72;11.73;;;16.00;1.00;;;;;;5065700;28;20044;-66
2023/05/22 07:38:48;;;;;;;36.00;11.55;;;16.00;1.00;;;;;;5065053;28;20043;-65
2023/05/22 07:41:13;;;;;;;28.42;12.48;;;16.00;22.40;;;;;;5065980;28;20056;-65
2023/05/22 07:43:39;;;;;;;31.25;12.43;;;16.00;1.00;;;;;;5081076;28;20036;-66
2023/05/22 07:46:05;;;;;;;34.15;13.43;;;15.90;14.80;;;;;;5079561;28;20036;-65
2023/05/22 07:48:31;;;;;;;37.65;13.07;;;15.80;56.00;;;;;;5061454;28;20035;-65
2023/05/22 07:50:56;;;;;;;28.02;12.77;;;15.80;81.10;;;;;;5115819;27;20031;-65
2023/05/22 07:53:22;;;;;;;39.78;13.57;;;15.80;97.90;;;;;;5049068;28;20071;-66
2023/05/22 07:55:48;;;;;;;34.22;14.07;;;15.80;96.00;;;;;;5081597;28;20043;-65
2023/05/22 07:58:14;;;;;;;40.28;14.10;;;15.80;99.10;;;;;;5033700;28;20054;-67
2023/05/22 08:00:40;;;;;;;31.48;13.07;;;15.80;99.90;;;;;;5039036;28;20293;-66
2023/05/22 08:03:06;;;;;;;30.10;14.02;;;15.80;99.90;;;;;;5049051;28;20651;-66
2023/05/22 08:05:31;;;;;;;36.65;13.75;;;15.80;99.90;;;;;;5065908;28;20040;-66
2023/05/22 08:07:57;;;;;;;38.67;13.48;;;15.80;99.90;;;;;;5065802;28;20044;-65
2023/05/22 08:10:23;;;;;;;33.42;13.63;;;15.80;99.90;;;;;;5081058;28;20522;-66
2023/05/22 08:12:48;;;;;;;43.08;14.85;;;15.80;99.90;;;;;;5082070;27;20514;-66
2023/05/22 08:15:14;;;;;;;37.50;15.10;;;15.90;99.90;;;;;;5065289;28;20504;-66
2023/05/22 08:17:40;;;;;;;30.83;13.35;;;15.90;99.90;;;;;;5050089;28;20058;-66
2023/05/22 08:20:07;;;;;;;36.33;14.23;;;15.90;99.90;;;;;;5067235;28;20127;-66
2023/05/22 08:22:33;;;;;;;37.22;14.20;;;15.90;99.90;;;;;;5063349;28;20521;-66
2023/05/22 08:24:59;;;;;;;35.03;14.52;;;16.00;99.90;;;;;;5049575;28;20035;-66
2023/05/22 08:27:25;;;;;;;37.63;14.38;;;16.00;56.40;;;;;;5049706;28;20650;-66
2023/05/22 08:29:51;;;;;;;36.85;13.48;;;16.00;73.40;;;;;;5077864;28;20118;-66
2023/05/22 08:32:17;;;;;;;37.58;13.85;;;16.00;99.50;;;;;;5060483;28;20179;-66
2023/05/22 08:34:44;;;;;;;37.58;13.68;;;16.20;58.20;;;;;;5055566;28;20111;-66
2023/05/22 08:37:13;;;;;;;34.78;13.63;;;16.20;39.30;;;;;;5048215;28;20555;-66
2023/05/22 08:39:38;;;;;;;33.70;12.85;;;16.40;15.70;;;;;;5099497;27;20063;-66
2023/05/22 08:42:05;;;;;;;30.33;12.45;;;16.40;1.00;;;;;;5064531;28;20514;-66
2023/05/22 08:44:30;;;;;;;30.90;13.18;;;16.40;1.00;;;;;;5033821;28;20093;-67
2023/05/22 08:47:02;;;;;;;30.35;12.82;;;16.60;1.00;;;;;;5065636;28;20460;-67
2023/05/22 08:49:29;;;;;;;35.47;13.02;;;16.60;1.00;;;;;;5048631;28;20044;-67
2023/05/22 08:51:59;;;;;;;32.25;12.93;;;16.80;1.00;;;;;;5080477;28;20047;-67
2023/05/22 08:54:26;;;;;;;29.75;12.52;;;16.80;99.90;;;;;;5064804;28;20036;-67
2023/05/22 08:56:53;;;;;;;27.52;12.63;;;16.80;99.90;;;;;;5064876;28;20055;-67
2023/05/22 08:59:19;;;;;;;30.52;12.77;;;16.70;99.90;;;;;;5061522;28;20036;-65
2023/05/22 09:01:46;;;;;;;30.92;13.48;;;16.70;99.90;;;;;;5022859;28;20043;-66
2023/05/22 09:04:12;;;;;;;33.13;13.10;;;16.70;99.90;;;;;;5097605;27;20157;-66
2023/05/22 09:06:39;;;;;;;29.88;13.38;;;16.60;99.90;;;;;;5048119;28;20044;-66
2023/05/22 09:09:05;;;;;;;36.35;13.65;;;16.60;99.90;;;;;;5048611;28;20040;-66
2023/05/22 09:11:31;;;;;;;33.55;13.15;;;16.70;99.90;;;;;;5081444;28;20040;-66
2023/05/22 09:14:15;;;;;;;41.28;13.65;;;16.60;99.90;;;;;;5031802;28;20079;-66
2023/05/22 09:16:45;;;;;;;33.72;12.98;;;16.50;99.90;;;;;;5065411;28;20039;-66
2023/05/22 09:19:12;;;;;;;37.03;14.63;;;16.40;99.90;;;;;;5081170;28;20179;-66
2023/05/22 09:21:38;;;;;;;32.20;13.73;;;16.50;99.90;;;;;;5099610;27;20533;-66
2023/05/22 09:24:08;;;;;;;30.73;13.27;;;16.50;99.90;;;;;;5047937;28;20040;-66
2023/05/22 09:26:33;;;;;;;33.30;13.98;;;16.50;99.90;;;;;;5111956;27;20085;-65
2023/05/22 09:29:00;;;;;;;34.13;13.95;;;16.50;99.90;;;;;;5080263;28;20043;-66
2023/05/22 09:31:27;;;;;;;32.28;14.35;;;16.70;99.90;;;;;;5078932;28;20106;-66
2023/05/22 09:33:54;;;;;;;33.08;13.90;;;16.70;99.90;;;;;;5063206;28;20044;-65
2023/05/22 09:36:20;;;;;;;34.33;14.10;;;16.80;99.90;;;;;;5113650;27;20093;-65
2023/05/22 09:38:46;;;;;;;31.50;13.48;;;16.80;99.90;;;;;;5079751;28;20097;-66
2023/05/22 09:41:12;;;;;;;38.85;14.77;;;16.90;99.90;;;;;;5097482;28;20665;-65
2023/05/22 09:43:38;;;;;;;36.17;14.32;;;16.90;99.90;;;;;;5114026;27;20055;-65
2023/05/22 09:46:04;;;;;;;39.03;14.82;;;17.00;99.90;;;;;;5046719;28;20042;-66
2023/05/22 09:48:36;;;;;;;38.85;15.02;;;17.00;99.90;;;;;;5080248;28;20096;-65
2023/05/22 09:51:03;;;;;;;31.70;14.50;;;17.10;99.90;;;;;;5114126;28;20044;-65
2023/05/22 09:53:31;;;;;;;36.63;15.23;;;17.00;99.90;;;;;;5064312;28;20044;-66
2023/05/22 09:55:59;;;;;;;38.65;15.07;;;17.00;99.90;;;;;;5064107;28;20612;-65
2023/05/22 09:58:32;;;;;;;41.78;15.68;;;16.90;99.90;;;;;;5065436;28;20086;-65
2023/05/22 10:00:58;;;;;;;;;;;16.80;99.90;;;;;;5082930;28;20237;-65
2023/05/22 10:04:03;;;;;;;39.72;15.90;;;16.70;99.90;;;;;;5082120;28;20353;-66
2023/05/22 10:06:30;;;;;;;43.78;16.80;;;16.70;99.90;;;;;;5082013;28;20115;-65
2023/05/22 10:09:01;;;;;;;37.40;17.00;;;16.60;99.90;;;;;;5116605;28;20059;-65
2023/05/22 10:11:29;;;;;;;36.30;17.77;;;16.70;99.90;;;;;;5093526;28;20108;-65
2023/05/22 10:13:57;;;;;;;30.85;17.13;;;16.80;99.90;;;;;;5065509;28;20043;-65
2023/05/22 10:16:24;;;;;;;25.10;16.63;;;16.90;99.90;;;;;;5081610;28;20044;-65
2023/05/22 10:18:52;;;;;;;24.95;16.00;;;16.90;99.90;;;;;;5081601;28;20159;-65
2023/05/22 10:21:19;;;;;;;26.27;17.08;;;16.90;99.90;;;;;;5105180;28;20394;-66
2023/05/22 10:23:46;;;;;;;22.95;16.67;;;17.00;99.90;;;;;;5047487;28;20447;-66
2023/05/22 10:26:12;;;;;;;27.17;17.00;;;17.00;99.90;;;;;;5044687;28;20054;-66
2023/05/22 10:28:43;;;;;;;28.00;16.48;;;17.20;99.90;;;;;;5065448;28;20401;-66
2023/05/22 10:31:37;;;;;;;23.38;16.45;;;17.30;99.90;;;;;;5064521;28;20134;-65
2023/05/22 10:34:08;;;;;;;22.95;16.88;;;17.60;99.90;;;;;;5057724;28;20178;-66
2023/05/22 10:36:43;;;;;;;25.42;17.33;;;17.80;99.90;;;;;;5065292;28;20101;-66
2023/05/22 10:39:53;;;;;;;21.83;16.90;;;18.10;99.90;;;;;;5065430;28;20044;-66
2023/05/22 10:42:19;;;;;;;21.27;15.88;;;18.50;99.90;;;;;;5103334;27;20048;-66
2023/05/22 10:44:47;;;;;;;20.08;15.07;;;18.70;99.90;;;;;;5050049;28;20036;-66
2023/05/22 10:47:13;;;;;;;20.92;15.00;;;19.00;99.90;;;;;;5102538;27;20047;-66
2023/05/22 10:49:43;;;;;;;20.60;14.70;;;19.20;99.90;;;;;;5052218;28;20566;-66
2023/05/22 10:52:10;;;;;;;16.17;12.98;;;19.30;1.00;;;;;;5069198;28;20063;-66
2023/05/22 10:54:44;;;;;;;19.35;13.88;;;19.40;1.00;;;;;;5079949;28;20082;-66
2023/05/22 10:57:15;;;;;;;20.70;13.05;;;19.40;1.00;;;;;;5067996;28;20032;-66
2023/05/22 10:59:41;;;;;;;18.63;13.90;;;19.50;1.00;;;;;;5065691;28;20342;-66
2023/05/22 11:02:18;;;;;;;18.40;13.00;;;19.50;1.00;;;;;;5068759;28;20102;-66
2023/05/22 11:04:44;;;;;;;19.27;14.27;;;19.70;1.00;;;;;;5051241;28;20187;-66
2023/05/22 11:07:12;;;;;;;18.33;13.20;;;19.80;1.00;;;;;;5085019;28;20342;-67
2023/05/22 11:09:46;;;;;;;20.83;14.25;;;19.90;1.00;;;;;;5068420;28;20039;-66
2023/05/22 11:12:16;;;;;;;18.38;14.65;;;20.10;1.00;;;;;;5079548;28;20449;-67
2023/05/22 11:15:02;;;;;;;20.08;13.68;;;20.20;99.90;;;;;;5061810;28;20121;-67
2023/05/22 11:17:29;;;;;;;20.92;14.15;;;20.20;99.90;;;;;;5040237;28;20032;-67
2023/05/22 11:20:06;;;;;;;17.30;13.93;;;20.30;99.90;;;;;;5067410;28;20045;-67
2023/05/22 11:22:43;;;;;;;18.42;14.45;;;20.40;99.90;;;;;;5068384;28;20040;-67
2023/05/22 11:25:10;;;;;;;16.83;14.90;;;20.50;99.90;;;;;;5066774;28;20036;-66
2023/05/22 11:27:39;;;;;;;18.63;13.60;;;20.50;99.90;;;;;;5100640;27;20127;-67
2023/05/22 11:30:06;;;;;;;14.20;12.80;;;20.60;99.90;;;;;;5050082;28;20055;-67
2023/05/22 11:32:34;;;;;;;15.07;13.20;;;20.60;99.90;;;;;;5101362;27;20255;-66
2023/05/22 11:35:00;;;;;;;16.45;13.60;;;20.40;99.90;;;;;;5067775;28;20222;-66
2023/05/22 11:37:26;;;;;;;14.40;13.00;;;20.30;99.90;;;;;;5052810;28;20089;-66
2023/05/22 11:39:56;;;;;;;15.10;13.60;;;20.10;99.90;;;;;;5067672;28;20064;-66
2023/05/22 11:42:21;;;;;;;16.75;13.75;;;20.10;99.90;;;;;;5100402;27;20035;-66
2023/05/22 11:44:47;;;;;;;16.38;14.50;;;20.20;99.90;;;;;;5066169;28;20632;-66
2023/05/22 11:47:13;;;;;;;15.82;14.30;;;20.30;99.90;;;;;;5049436;28;20058;-66
2023/05/22 11:49:43;;;;;;;15.85;14.32;;;20.80;99.90;;;;;;5066849;27;20063;-66
2023/05/22 11:52:09;;;;;;;16.73;13.70;;;20.90;99.90;;;;;;5082677;28;20083;-66
2023/05/22 11:54:35;;;;;;;15.55;14.02;;;20.90;99.90;;;;;;5100190;27;20238;-66
2023/05/22 11:57:07;;;;;;;15.80;14.20;;;20.80;99.90;;;;;;5066257;28;20095;-67
2023/05/22 11:59:34;;;;;;;16.33;13.73;;;21.10;99.90;;;;;;5067714;28;20176;-64
2023/05/22 12:02:00;;;;;;;17.60;14.15;;;21.40;99.90;;;;;;5068556;28;20536;-64
2023/05/22 12:04:26;;;;;;;14.98;13.38;;;21.70;99.90;;;;;;5081662;28;20040;-65
2023/05/22 12:06:52;;;;;;;15.15;13.32;;;22.00;99.90;;;;;;5082793;28;20715;-64
2023/05/22 12:09:19;;;;;;;15.43;13.73;;;22.20;99.90;;;;;;5034602;28;20572;-65
2023/05/22 12:11:48;;;;;;;15.90;14.40;;;22.40;99.90;;;;;;5066381;28;20328;-64
2023/05/22 12:14:14;;;;;;;15.10;13.88;;;22.50;99.90;;;;;;5066873;28;20365;-64
2023/05/22 12:16:40;;;;;;;15.40;13.80;;;22.60;99.90;;;;;;5099457;27;20040;-65
2023/05/22 12:19:10;;;;;;;15.85;14.07;;;22.90;99.90;;;;;;5083733;28;20497;-64
2023/05/22 12:21:40;;;;;;;15.27;13.73;;;23.10;99.90;;;;;;5061588;28;20429;-64
2023/05/22 12:24:07;;;;;;;15.38;13.82;;;23.50;99.90;;;;;;5066376;28;20214;-64
2023/05/22 12:26:33;;;;;;;15.18;13.23;;;23.70;58.00;;;;;;5065343;28;20032;-65
2023/05/22 12:28:59;;;;;;;14.48;13.10;;;23.80;1.00;;;;;;5049623;28;20264;-66
2023/05/22 12:31:25;;;;;;;14.98;13.63;;;23.60;1.00;;;;;;5080761;28;20119;-66